Time;durP1;ratioP1;P1;durP2;ratioP2;P2;SDS_P1;SDS_P2;PMS_P1;PMS_P2;Temp;Humidity;BMP_temperature;BMP_pressure;BME280_temperature;BME280_humidity;BME280_pressure;Samples;Min_cycle;Max_cycle;Signal;HPM_P1;HPM_P2
2021/08/06 00:00:33;;;;;;;7.63;6.43;;;18.50;99.90;;;;;;4420763;32;20191;-61
2021/08/06 00:03:02;;;;;;;8.73;7.30;;;18.50;99.90;;;;;;4421364;32;20167;-63
2021/08/06 00:05:34;;;;;;;7.63;6.67;;;18.40;99.90;;;;;;4421041;32;20143;-63
2021/08/06 00:08:01;;;;;;;7.93;6.13;;;18.30;99.90;;;;;;4421098;32;20151;-62
2021/08/06 00:10:30;;;;;;;10.87;6.93;;;18.30;99.90;;;;;;4421115;32;20143;-63
2021/08/06 00:13:00;;;;;;;10.17;6.83;;;18.20;99.90;;;;;;4420863;32;20218;-61
2021/08/06 00:15:32;;;;;;;7.77;6.13;;;18.30;99.90;;;;;;4421052;32;20483;-61
2021/08/06 00:17:58;;;;;;;8.40;6.47;;;18.40;99.90;;;;;;4420919;32;20151;-61
2021/08/06 00:20:30;;;;;;;10.53;6.90;;;18.40;99.90;;;;;;4420900;32;20191;-61
2021/08/06 00:23:00;;;;;;;7.00;6.13;;;18.40;99.90;;;;;;4420529;32;20155;-62
2021/08/06 00:25:30;;;;;;;8.00;6.00;;;18.40;99.90;;;;;;4421148;32;20174;-61
2021/08/06 00:28:00;;;;;;;8.97;6.70;;;18.40;99.90;;;;;;4420651;32;20197;-61
2021/08/06 00:30:29;;;;;;;8.60;6.07;;;18.50;99.90;;;;;;4420527;32;20156;-62
2021/08/06 00:33:03;;;;;;;8.03;5.43;;;18.50;99.90;;;;;;4421028;32;20185;-61
2021/08/06 00:35:36;;;;;;;8.77;6.63;;;18.50;99.90;;;;;;4420841;32;20151;-63
2021/08/06 00:38:05;;;;;;;6.17;5.50;;;18.50;99.90;;;;;;4408289;32;20183;-61
2021/08/06 00:40:33;;;;;;;8.13;6.07;;;18.60;99.90;;;;;;4420603;32;20152;-61
2021/08/06 00:43:00;;;;;;;6.50;5.80;;;18.60;99.90;;;;;;4421348;32;20147;-61
2021/08/06 00:45:30;;;;;;;7.67;5.77;;;18.60;99.90;;;;;;4420775;32;20167;-62
2021/08/06 00:48:02;;;;;;;5.70;4.90;;;18.60;99.90;;;;;;4421143;32;20564;-61
2021/08/06 00:50:30;;;;;;;7.10;5.43;;;18.60;99.90;;;;;;4420371;32;20156;-62
2021/08/06 00:53:08;;;;;;;5.33;4.60;;;18.60;99.90;;;;;;4420626;32;20224;-61
2021/08/06 00:55:38;;;;;;;5.87;4.87;;;18.70;99.90;;;;;;4420543;32;20258;-63
2021/08/06 00:58:07;;;;;;;8.43;4.87;;;18.70;99.90;;;;;;4420962;32;20225;-61
2021/08/06 01:00:41;;;;;;;5.33;4.73;;;18.70;99.90;;;;;;4420472;32;20147;-62
2021/08/06 01:03:17;;;;;;;5.00;4.50;;;18.70;99.90;;;;;;4420806;32;20169;-60
2021/08/06 01:08:45;;;;;;;5.93;4.77;;;18.80;99.90;;;;;;4417725;32;20215;-64
2021/08/06 01:11:14;;;;;;;5.37;4.80;;;18.80;99.90;;;;;;4420885;32;20170;-62
2021/08/06 01:13:44;;;;;;;6.13;4.90;;;18.80;99.90;;;;;;4420636;32;20170;-61
2021/08/06 01:16:13;;;;;;;6.17;4.47;;;18.80;99.90;;;;;;4422004;32;20151;-62
2021/08/06 01:18:48;;;;;;;4.87;3.90;;;18.80;99.90;;;;;;4420251;32;20170;-62
2021/08/06 01:21:19;;;;;;;6.03;5.43;;;18.80;99.90;;;;;;4420838;32;20463;-63
2021/08/06 01:23:49;;;;;;;5.80;5.13;;;18.80;99.90;;;;;;4420437;32;20148;-62
2021/08/06 01:26:31;;;;;;;5.20;4.70;;;18.70;99.90;;;;;;4421432;32;20167;-60
2021/08/06 01:28:59;;;;;;;6.30;4.40;;;18.80;99.90;;;;;;4420078;32;20190;-61
2021/08/06 01:31:29;;;;;;;6.57;4.80;;;18.70;99.90;;;;;;4420625;32;20217;-63
2021/08/06 01:33:57;;;;;;;5.57;4.37;;;18.70;99.90;;;;;;4422092;32;20244;-62
2021/08/06 01:36:27;;;;;;;4.53;4.10;;;18.80;99.90;;;;;;4420223;32;20156;-62
2021/08/06 01:39:02;;;;;;;5.07;4.37;;;18.80;99.90;;;;;;4420440;32;20197;-62
2021/08/06 01:41:36;;;;;;;5.20;4.63;;;18.80;99.90;;;;;;4421126;32;20207;-62
2021/08/06 01:44:11;;;;;;;6.10;4.50;;;18.70;99.90;;;;;;4420214;32;20181;-62
2021/08/06 01:46:45;;;;;;;5.17;4.33;;;18.80;99.90;;;;;;4420100;32;20228;-62
2021/08/06 01:49:17;;;;;;;6.67;4.73;;;18.80;99.90;;;;;;4421809;32;20191;-62
2021/08/06 01:51:49;;;;;;;8.93;4.67;;;18.80;99.90;;;;;;4420304;32;20158;-63
2021/08/06 01:54:21;;;;;;;4.60;4.10;;;18.70;99.90;;;;;;4421698;32;20545;-61
2021/08/06 01:57:00;;;;;;;5.27;3.60;;;18.60;99.90;;;;;;4420701;32;20143;-61
2021/08/06 01:59:34;;;;;;;4.63;4.23;;;18.50;99.90;;;;;;4421028;32;20560;-61
2021/08/06 02:02:03;;;;;;;6.07;3.70;;;18.50;99.90;;;;;;4422685;32;20166;-61
2021/08/06 02:04:38;;;;;;;6.00;3.80;;;18.50;99.90;;;;;;4422890;32;20200;-61
2021/08/06 02:07:05;;;;;;;8.27;3.90;;;18.50;99.90;;;;;;4422766;32;20169;-61
2021/08/06 02:09:32;;;;;;;4.70;3.40;;;18.50;99.90;;;;;;4424306;32;20580;-60
2021/08/06 02:12:01;;;;;;;6.40;3.47;;;18.20;99.90;;;;;;4422656;32;20152;-60
2021/08/06 02:14:33;;;;;;;6.93;3.60;;;18.00;99.90;;;;;;4422698;32;20159;-61
2021/08/06 02:17:00;;;;;;;4.27;3.60;;;17.80;99.90;;;;;;4424146;32;20151;-61
2021/08/06 02:19:31;;;;;;;4.30;3.73;;;17.70;99.90;;;;;;4418365;32;20155;-61
2021/08/06 02:22:01;;;;;;;4.63;3.97;;;17.60;99.90;;;;;;4415865;32;20468;-61
2021/08/06 02:24:34;;;;;;;6.60;3.90;;;17.50;99.90;;;;;;4423582;32;20488;-61
2021/08/06 02:27:04;;;;;;;4.70;3.97;;;17.50;99.90;;;;;;4424185;32;20156;-60
2021/08/06 02:29:38;;;;;;;4.73;3.80;;;17.40;99.90;;;;;;4422378;32;20187;-61
2021/08/06 02:32:08;;;;;;;6.13;4.00;;;17.40;99.90;;;;;;4422314;32;20162;-61
2021/08/06 02:34:38;;;;;;;3.97;3.57;;;17.40;99.90;;;;;;4422473;32;20170;-61
2021/08/06 02:37:05;;;;;;;5.00;3.70;;;17.40;99.90;;;;;;4423428;32;20186;-60
2021/08/06 02:39:37;;;;;;;8.47;3.70;;;17.40;99.90;;;;;;4422312;32;20158;-61
2021/08/06 02:42:08;;;;;;;4.00;3.60;;;17.40;99.90;;;;;;4422585;32;20167;-61
2021/08/06 02:44:41;;;;;;;5.27;3.93;;;17.50;99.90;;;;;;4422234;32;20457;-62
2021/08/06 02:47:18;;;;;;;6.40;3.60;;;17.50;99.90;;;;;;4422149;32;20190;-61
2021/08/06 02:49:47;;;;;;;6.10;4.07;;;17.50;99.90;;;;;;4422773;32;20173;-60
2021/08/06 02:52:17;;;;;;;4.40;3.93;;;17.50;99.90;;;;;;4413412;32;20163;-62
2021/08/06 02:54:44;;;;;;;3.77;3.27;;;17.60;99.90;;;;;;4420634;32;20155;-61
2021/08/06 02:57:12;;;;;;;4.60;3.37;;;17.60;99.90;;;;;;4422800;32;20170;-61
2021/08/06 02:59:39;;;;;;;6.93;4.27;;;17.60;99.90;;;;;;4422112;32;20170;-61
2021/08/06 03:02:08;;;;;;;4.67;3.73;;;17.70;99.90;;;;;;4421846;32;20614;-61
2021/08/06 03:04:45;;;;;;;4.10;3.43;;;17.70;99.90;;;;;;4421822;32;20147;-61
2021/08/06 03:07:14;;;;;;;4.90;3.70;;;17.80;99.90;;;;;;4423544;32;20200;-62
2021/08/06 03:09:44;;;;;;;4.67;3.43;;;17.90;99.90;;;;;;4423613;32;20151;-62
2021/08/06 03:12:20;;;;;;;4.90;3.67;;;17.90;99.90;;;;;;4421601;32;20175;-61
2021/08/06 03:14:48;;;;;;;4.30;3.70;;;18.00;99.90;;;;;;4421714;32;20219;-61
2021/08/06 03:17:19;;;;;;;3.40;2.90;;;18.10;99.90;;;;;;4423345;32;20170;-61
2021/08/06 03:19:46;;;;;;;5.03;3.13;;;18.10;99.90;;;;;;4422028;32;20195;-61
2021/08/06 03:22:13;;;;;;;4.87;3.10;;;18.20;99.90;;;;;;4421843;32;20147;-61
2021/08/06 03:24:40;;;;;;;4.23;3.00;;;18.30;99.90;;;;;;4422498;32;20593;-61
2021/08/06 03:27:07;;;;;;;5.30;2.90;;;18.30;99.90;;;;;;4422003;32;20170;-60
2021/08/06 03:29:35;;;;;;;3.27;2.90;;;18.40;99.90;;;;;;4421333;32;20178;-62
2021/08/06 03:32:14;;;;;;;4.47;2.97;;;18.40;99.90;;;;;;4421245;32;20163;-62
2021/08/06 03:34:44;;;;;;;3.70;2.73;;;18.50;99.90;;;;;;4421644;32;20220;-63
2021/08/06 03:37:20;;;;;;;4.07;2.77;;;18.60;99.90;;;;;;4421777;32;20152;-62
2021/08/06 03:39:50;;;;;;;3.97;2.30;;;18.60;99.90;;;;;;4421446;32;20147;-61
2021/08/06 03:42:17;;;;;;;4.23;2.60;;;18.60;99.90;;;;;;4420555;32;20187;-60
2021/08/06 03:44:45;;;;;;;4.47;2.67;;;18.60;99.90;;;;;;4414441;32;20159;-61
2021/08/06 03:47:12;;;;;;;3.00;2.70;;;18.60;99.90;;;;;;4406220;32;20191;-64
2021/08/06 03:49:42;;;;;;;4.17;2.50;;;18.50;99.90;;;;;;4406407;32;20529;-60
2021/08/06 03:52:10;;;;;;;4.53;2.23;;;18.50;99.90;;;;;;4407668;32;20171;-61
2021/08/06 03:54:37;;;;;;;6.67;2.53;;;18.50;99.90;;;;;;4404249;32;20159;-63
2021/08/06 03:57:05;;;;;;;4.10;2.60;;;18.50;99.90;;;;;;4406097;32;20160;-61
2021/08/06 03:59:33;;;;;;;3.60;2.60;;;18.40;99.90;;;;;;4405946;32;20474;-61
2021/08/06 04:02:05;;;;;;;2.90;2.23;;;18.40;99.90;;;;;;4407388;32;20156;-63
2021/08/06 04:04:32;;;;;;;2.83;2.40;;;18.40;99.90;;;;;;4405778;32;20151;-62
2021/08/06 04:07:09;;;;;;;4.63;2.23;;;18.40;99.90;;;;;;4413818;32;20178;-61
2021/08/06 04:09:36;;;;;;;3.17;2.30;;;18.40;99.90;;;;;;4407082;32;20147;-62
2021/08/06 04:12:06;;;;;;;4.70;2.47;;;18.40;99.90;;;;;;4405908;32;20543;-62
2021/08/06 04:14:35;;;;;;;2.37;1.97;;;18.40;99.90;;;;;;4406546;32;20189;-62
2021/08/06 04:17:05;;;;;;;3.17;2.20;;;18.40;99.90;;;;;;4405854;32;20202;-61
2021/08/06 04:19:32;;;;;;;4.23;2.23;;;18.30;99.90;;;;;;4407084;32;20152;-62
2021/08/06 04:25:22;;;;;;;6.30;2.20;;;18.40;99.90;;;;;;4405949;32;20213;-61
2021/08/06 04:27:49;;;;;;;2.43;2.00;;;18.30;99.90;;;;;;4408612;32;20156;-60
2021/08/06 04:30:16;;;;;;;2.60;1.90;;;18.40;99.90;;;;;;4416506;32;20156;-61
2021/08/06 04:32:44;;;;;;;3.20;2.47;;;18.40;99.90;;;;;;4420441;32;20182;-61
2021/08/06 04:35:11;;;;;;;2.43;2.20;;;18.30;99.90;;;;;;4419976;32;20170;-61
2021/08/06 04:37:46;;;;;;;5.83;2.60;;;18.40;99.90;;;;;;4420950;32;20183;-62
2021/08/06 04:40:13;;;;;;;2.93;2.23;;;18.40;99.90;;;;;;4419581;32;20601;-61
2021/08/06 04:42:40;;;;;;;3.80;2.80;;;18.40;99.90;;;;;;4421678;32;20171;-61
2021/08/06 04:45:08;;;;;;;3.50;2.43;;;18.40;99.90;;;;;;4421178;32;20167;-61
2021/08/06 04:47:35;;;;;;;4.73;2.40;;;18.40;99.90;;;;;;4420645;32;20445;-62
2021/08/06 04:50:03;;;;;;;3.50;2.30;;;18.40;99.90;;;;;;4420807;32;20164;-62
2021/08/06 04:52:30;;;;;;;9.30;2.33;;;18.30;99.90;;;;;;4420497;32;20586;-62
2021/08/06 04:54:57;;;;;;;2.93;2.50;;;18.30;99.90;;;;;;4421001;32;20162;-61
2021/08/06 04:57:24;;;;;;;3.00;2.50;;;18.40;99.90;;;;;;4420484;32;20155;-61
2021/08/06 04:59:50;;;;;;;5.03;3.07;;;18.30;99.90;;;;;;4420968;32;20155;-62
2021/08/06 05:02:17;;;;;;;3.33;2.67;;;18.40;99.90;;;;;;4421059;32;20537;-61
2021/08/06 05:04:44;;;;;;;4.17;2.30;;;18.40;99.90;;;;;;4420440;32;20166;-61
2021/08/06 05:07:18;;;;;;;3.00;2.70;;;18.40;99.90;;;;;;4420380;32;20148;-62
2021/08/06 05:09:45;;;;;;;5.23;2.83;;;18.40;99.90;;;;;;4420602;32;20159;-61
2021/08/06 05:12:11;;;;;;;3.97;2.73;;;18.50;99.90;;;;;;4420279;32;20189;-61
2021/08/06 05:14:39;;;;;;;4.37;3.20;;;18.40;99.90;;;;;;4420351;32;20228;-61
2021/08/06 05:17:06;;;;;;;4.37;3.07;;;18.30;99.90;;;;;;4420430;32;20571;-62
2021/08/06 05:19:33;;;;;;;3.60;3.00;;;18.20;99.90;;;;;;4420572;32;20182;-61
2021/08/06 05:22:00;;;;;;;3.73;3.43;;;18.10;99.90;;;;;;4420557;32;20151;-62
2021/08/06 05:24:28;;;;;;;3.67;3.17;;;18.00;99.90;;;;;;4421650;32;20197;-60
2021/08/06 05:26:55;;;;;;;3.43;3.13;;;18.00;99.90;;;;;;4420477;32;20485;-61
2021/08/06 05:29:22;;;;;;;3.07;2.83;;;18.00;99.90;;;;;;4420317;32;20568;-60
2021/08/06 05:31:49;;;;;;;3.63;3.00;;;18.10;99.90;;;;;;4420085;32;20207;-61
2021/08/06 05:34:16;;;;;;;3.67;3.10;;;18.30;99.90;;;;;;4421991;32;20482;-61
2021/08/06 05:36:46;;;;;;;3.33;2.60;;;18.50;99.90;;;;;;4423816;32;20170;-62
2021/08/06 05:39:12;;;;;;;5.53;3.63;;;18.60;99.90;;;;;;4422985;32;20194;-62
2021/08/06 05:41:41;;;;;;;4.57;3.83;;;18.50;99.90;;;;;;4423333;32;20151;-61
2021/08/06 05:44:08;;;;;;;4.60;3.50;;;18.20;99.90;;;;;;4423016;32;20550;-62
2021/08/06 05:46:35;;;;;;;3.93;3.20;;;18.20;99.90;;;;;;4423148;32;20152;-61
2021/08/06 05:49:02;;;;;;;4.27;3.53;;;18.20;99.90;;;;;;4423362;32;20499;-61
2021/08/06 05:51:29;;;;;;;3.50;3.17;;;18.20;99.90;;;;;;4423979;32;20202;-61
2021/08/06 05:53:55;;;;;;;5.87;4.37;;;18.20;99.90;;;;;;4423405;32;20551;-61
2021/08/06 05:56:22;;;;;;;4.83;3.67;;;18.30;99.90;;;;;;4423022;32;20147;-61
2021/08/06 05:58:51;;;;;;;4.87;3.87;;;18.40;99.90;;;;;;4422951;32;20172;-61
2021/08/06 06:01:19;;;;;;;3.97;3.67;;;18.50;99.90;;;;;;4422769;32;20151;-61
2021/08/06 06:03:46;;;;;;;4.10;3.70;;;18.40;99.90;;;;;;4422809;32;20147;-62
2021/08/06 06:06:12;;;;;;;4.80;4.30;;;18.40;99.90;;;;;;4423124;32;20542;-60
2021/08/06 06:08:39;;;;;;;4.83;4.33;;;18.40;99.90;;;;;;4422743;32;20159;-62
2021/08/06 06:11:06;;;;;;;5.77;4.40;;;18.30;99.90;;;;;;4424383;32;20185;-61
2021/08/06 06:13:33;;;;;;;4.40;4.00;;;18.20;99.90;;;;;;4422590;32;20566;-61
2021/08/06 06:16:01;;;;;;;4.40;4.00;;;18.20;99.90;;;;;;4422564;32;20155;-61
2021/08/06 06:18:28;;;;;;;4.67;4.20;;;18.20;99.90;;;;;;4422490;32;20174;-61
2021/08/06 06:20:56;;;;;;;5.57;4.70;;;18.30;99.90;;;;;;4422506;32;20190;-62
2021/08/06 06:23:23;;;;;;;4.47;4.07;;;18.20;99.90;;;;;;4423730;32;20251;-61
2021/08/06 06:25:50;;;;;;;4.97;4.07;;;18.20;99.90;;;;;;4422573;32;20147;-61
2021/08/06 06:28:17;;;;;;;6.43;4.20;;;18.30;99.90;;;;;;4424249;32;20151;-62
2021/08/06 06:30:44;;;;;;;4.87;3.80;;;18.40;99.90;;;;;;4422996;32;20147;-61
2021/08/06 06:33:12;;;;;;;5.40;3.97;;;18.50;99.90;;;;;;4422137;32;20186;-61
2021/08/06 06:35:39;;;;;;;4.60;4.13;;;18.70;99.90;;;;;;4421861;32;20575;-62
2021/08/06 06:38:06;;;;;;;5.70;4.33;;;18.90;99.90;;;;;;4422302;32;20147;-62
2021/08/06 06:40:33;;;;;;;4.83;4.27;;;19.00;99.90;;;;;;4422172;32;20203;-61
2021/08/06 06:43:00;;;;;;;5.03;3.80;;;19.00;99.90;;;;;;4421987;32;20208;-61
2021/08/06 06:45:27;;;;;;;5.43;4.30;;;18.90;99.90;;;;;;4422060;32;20559;-62
2021/08/06 06:47:54;;;;;;;4.23;3.57;;;18.90;99.90;;;;;;4422798;32;20175;-61
2021/08/06 06:50:25;;;;;;;4.67;4.07;;;18.90;99.90;;;;;;4422977;32;20552;-64
2021/08/06 06:52:52;;;;;;;6.40;3.93;;;19.00;99.90;;;;;;4421892;32;20178;-62
2021/08/06 06:55:20;;;;;;;5.07;3.87;;;18.90;99.90;;;;;;4423495;32;20619;-61
2021/08/06 06:57:49;;;;;;;6.10;4.70;;;18.90;99.90;;;;;;4422067;32;20170;-63
2021/08/06 07:00:18;;;;;;;6.53;4.00;;;18.90;99.90;;;;;;4422043;32;20147;-63
2021/08/06 07:02:45;;;;;;;5.07;4.40;;;18.80;99.90;;;;;;4422298;32;20216;-63
2021/08/06 07:05:13;;;;;;;7.30;4.53;;;18.80;99.90;;;;;;4422668;32;20178;-63
2021/08/06 07:07:41;;;;;;;4.50;4.10;;;18.90;99.90;;;;;;4421579;32;20147;-60
2021/08/06 07:10:09;;;;;;;7.17;4.57;;;19.20;99.90;;;;;;4421789;32;20237;-63
2021/08/06 07:12:36;;;;;;;4.47;3.63;;;19.40;99.90;;;;;;4423365;32;20488;-62
2021/08/06 07:15:04;;;;;;;4.63;3.90;;;19.90;99.90;;;;;;4421699;32;20151;-62
2021/08/06 07:17:32;;;;;;;8.00;4.37;;;20.10;99.90;;;;;;4422104;32;20170;-62
2021/08/06 07:19:59;;;;;;;5.37;4.13;;;20.30;99.90;;;;;;4421830;32;20572;-62
2021/08/06 07:22:28;;;;;;;4.70;4.30;;;20.70;99.90;;;;;;4421734;32;20143;-63
2021/08/06 07:24:57;;;;;;;5.90;3.93;;;20.90;99.90;;;;;;4421558;32;20147;-63
2021/08/06 07:27:24;;;;;;;5.87;4.67;;;20.90;99.90;;;;;;4421586;32;20182;-62
2021/08/06 07:29:51;;;;;;;4.57;4.13;;;20.90;99.90;;;;;;4421345;32;20167;-62
2021/08/06 07:32:18;;;;;;;7.40;4.83;;;20.80;99.90;;;;;;4421236;32;20489;-63
2021/08/06 07:34:45;;;;;;;7.83;4.60;;;21.00;99.90;;;;;;4421080;32;20199;-64
2021/08/06 07:37:13;;;;;;;5.33;3.73;;;21.10;99.90;;;;;;4421547;32;20179;-64
2021/08/06 07:39:40;;;;;;;5.40;3.93;;;21.20;99.90;;;;;;4421465;32;20548;-62
2021/08/06 07:42:08;;;;;;;7.43;3.70;;;21.20;99.90;;;;;;4421343;32;20155;-60
2021/08/06 07:44:35;;;;;;;5.23;3.50;;;21.20;99.90;;;;;;4422926;32;20602;-64
2021/08/06 07:47:03;;;;;;;7.23;3.63;;;21.30;99.90;;;;;;4421367;32;20174;-63
2021/08/06 07:49:29;;;;;;;9.40;3.77;;;21.30;99.90;;;;;;4421230;32;20147;-63
2021/08/06 07:51:56;;;;;;;5.30;3.10;;;21.60;99.90;;;;;;4421315;32;20150;-63
2021/08/06 07:54:23;;;;;;;4.77;2.90;;;21.50;99.90;;;;;;4421091;32;20197;-63
2021/08/06 07:56:50;;;;;;;7.47;3.03;;;23.30;99.90;;;;;;4420704;32;20207;-62
2021/08/06 07:59:19;;;;;;;5.37;2.70;;;26.40;99.90;;;;;;4421118;32;20167;-63
2021/08/06 08:01:46;;;;;;;7.67;2.40;;;27.40;99.90;;;;;;4421264;32;20147;-61
2021/08/06 08:04:13;;;;;;;4.40;2.28;;;30.00;95.00;;;;;;4422323;32;20155;-62
2021/08/06 08:06:40;;;;;;;3.90;2.20;;;35.30;85.60;;;;;;4421144;32;20167;-63
2021/08/06 08:09:08;;;;;;;4.72;2.15;;;40.60;62.40;;;;;;4422503;32;20598;-62
2021/08/06 08:11:35;;;;;;;2.22;2.00;;;44.00;51.00;;;;;;4420993;32;20169;-63
2021/08/06 08:14:01;;;;;;;2.85;1.98;;;43.50;45.70;;;;;;4421318;32;20148;-64
2021/08/06 08:16:30;;;;;;;3.50;1.70;;;42.20;46.60;;;;;;4421874;32;20207;-63
2021/08/06 08:18:57;;;;;;;2.70;1.60;;;43.40;45.40;;;;;;4421315;32;20206;-62
2021/08/06 08:21:24;;;;;;;4.45;2.25;;;45.00;43.70;;;;;;4420894;32;20594;-63
2021/08/06 08:23:51;;;;;;;3.83;1.90;;;45.20;41.40;;;;;;4420777;32;20151;-63
2021/08/06 08:26:20;;;;;;;5.60;2.15;;;43.30;41.70;;;;;;4420567;32;20197;-63
2021/08/06 08:28:47;;;;;;;5.10;2.00;;;43.00;42.30;;;;;;4420831;32;20636;-62
2021/08/06 08:31:14;;;;;;;2.50;1.40;;;41.20;44.60;;;;;;4420833;32;20166;-62
2021/08/06 08:33:43;;;;;;;2.95;1.60;;;43.20;43.70;;;;;;4421639;32;20160;-62
2021/08/06 08:36:09;;;;;;;3.45;1.52;;;46.30;41.70;;;;;;4420807;32;20194;-61
2021/08/06 08:38:36;;;;;;;3.08;1.62;;;47.30;39.00;;;;;;4420749;32;20140;-63
2021/08/06 08:41:04;;;;;;;2.40;1.35;;;48.10;38.40;;;;;;4420662;32;20152;-61
2021/08/06 08:43:31;;;;;;;3.75;1.70;;;49.20;35.90;;;;;;4420694;32;20167;-62
2021/08/06 08:45:58;;;;;;;5.03;1.77;;;43.00;38.10;;;;;;4420687;32;20139;-64
2021/08/06 08:48:25;;;;;;;5.20;1.85;;;39.40;42.00;;;;;;4403689;32;20179;-63
2021/08/06 08:50:59;;;;;;;4.00;1.80;;;35.70;45.40;;;;;;4401720;32;20173;-63
2021/08/06 08:53:26;;;;;;;3.62;1.80;;;35.80;49.70;;;;;;4404996;32;20575;-63
2021/08/06 08:55:53;;;;;;;2.92;1.67;;;39.80;45.10;;;;;;4400051;32;20143;-61
2021/08/06 08:58:26;;;;;;;3.30;1.62;;;38.10;44.00;;;;;;4402707;32;20279;-63
2021/08/06 09:00:52;;;;;;;2.58;1.67;;;36.70;45.20;;;;;;4399871;32;20461;-60
2021/08/06 09:03:41;;;;;;;4.90;2.60;;;34.00;48.30;;;;;;4405435;32;20202;-63
2021/08/06 09:06:34;;;;;;;2.55;1.58;;;31.90;52.20;;;;;;4404821;32;20198;-60
2021/08/06 09:09:13;;;;;;;1.98;1.30;;;35.10;50.40;;;;;;4409877;32;20219;-60
2021/08/06 09:11:40;;;;;;;4.78;1.87;;;33.70;50.00;;;;;;4416709;32;20211;-64
2021/08/06 09:14:17;;;;;;;2.42;1.42;;;29.80;54.60;;;;;;4423534;32;20147;-63
2021/08/06 09:16:56;;;;;;;5.03;1.87;;;27.10;60.70;;;;;;4424723;32;20178;-62
2021/08/06 09:19:23;;;;;;;4.30;2.00;;;25.00;71.80;;;;;;4423491;32;20162;-63
2021/08/06 09:21:51;;;;;;;6.10;2.50;;;23.20;91.90;;;;;;4423580;32;20183;-64
2021/08/06 09:24:18;;;;;;;3.45;1.92;;;22.10;99.90;;;;;;4424008;32;20209;-64
2021/08/06 09:26:46;;;;;;;4.00;2.27;;;21.50;99.90;;;;;;4423310;32;20586;-64
2021/08/06 09:29:16;;;;;;;5.78;2.22;;;21.20;99.90;;;;;;4423397;32;20207;-64
2021/08/06 09:31:56;;;;;;;5.78;2.10;;;20.90;99.90;;;;;;4423113;32;20159;-64
2021/08/06 09:34:25;;;;;;;6.03;2.73;;;20.80;99.90;;;;;;4423308;32;20215;-64
2021/08/06 09:37:01;;;;;;;4.73;2.37;;;20.80;99.90;;;;;;4423277;32;20148;-63
2021/08/06 09:39:32;;;;;;;8.50;2.77;;;21.10;99.90;;;;;;4424172;32;20144;-63
2021/08/06 09:41:59;;;;;;;4.97;2.30;;;21.30;99.90;;;;;;4423185;32;20181;-64
2021/08/06 09:44:29;;;;;;;6.70;2.87;;;21.40;99.90;;;;;;4422913;32;20155;-63
2021/08/06 09:46:57;;;;;;;4.87;2.53;;;21.20;99.90;;;;;;4423253;32;20169;-63
2021/08/06 09:49:26;;;;;;;5.97;2.47;;;21.20;99.90;;;;;;4423161;32;20182;-63
2021/08/06 09:51:54;;;;;;;3.30;2.10;;;21.70;99.90;;;;;;4423097;32;20204;-63
2021/08/06 09:54:23;;;;;;;5.60;2.00;;;22.60;99.90;;;;;;4422809;32;20178;-63
2021/08/06 09:57:02;;;;;;;7.77;2.20;;;24.10;99.90;;;;;;4423673;32;20151;-64
2021/08/06 09:59:30;;;;;;;7.27;2.80;;;25.10;99.30;;;;;;4423158;32;20166;-63
2021/08/06 10:02:16;;;;;;;3.13;2.80;;;25.40;97.50;;;;;;4424155;32;20143;-65
2021/08/06 10:04:43;;;;;;;4.85;2.78;;;24.80;96.70;;;;;;4424096;32;20204;-64
2021/08/06 10:07:15;;;;;;;6.53;2.50;;;23.90;98.10;;;;;;4422795;32;20151;-64
2021/08/06 10:09:41;;;;;;;3.93;2.67;;;23.20;99.20;;;;;;4424317;32;20186;-65
2021/08/06 10:12:08;;;;;;;4.23;2.90;;;22.70;99.90;;;;;;4422907;32;20147;-64
2021/08/06 10:14:36;;;;;;;6.17;2.23;;;22.80;99.90;;;;;;4423260;32;20213;-63
2021/08/06 10:17:03;;;;;;;4.23;2.60;;;23.00;99.90;;;;;;4422734;32;20162;-62
2021/08/06 10:19:31;;;;;;;4.85;2.22;;;23.50;99.50;;;;;;4409980;32;20202;-63
2021/08/06 10:21:59;;;;;;;2.67;2.22;;;23.80;99.00;;;;;;4422951;32;20200;-63
2021/08/06 10:24:28;;;;;;;3.00;1.93;;;23.80;98.70;;;;;;4422351;32;20152;-63
2021/08/06 10:26:55;;;;;;;4.32;2.75;;;23.50;99.10;;;;;;4423677;32;20140;-63
2021/08/06 10:29:23;;;;;;;3.45;1.92;;;23.00;99.90;;;;;;4422537;32;20197;-63
2021/08/06 10:32:11;;;;;;;5.70;2.50;;;23.20;99.90;;;;;;4422834;32;20182;-63
2021/08/06 10:35:19;;;;;;;3.67;2.22;;;23.50;99.70;;;;;;4422506;32;20143;-63
2021/08/06 10:37:58;;;;;;;3.03;1.90;;;24.10;99.20;;;;;;4422299;32;20155;-63
2021/08/06 10:41:03;;;;;;;2.40;2.03;;;24.90;98.00;;;;;;4422356;32;20170;-63
2021/08/06 10:44:02;;;;;;;4.90;1.85;;;25.20;96.50;;;;;;4422626;32;20200;-63
2021/08/06 10:46:52;;;;;;;2.40;2.20;;;25.40;96.50;;;;;;4421978;32;20139;-63
2021/08/06 10:49:19;;;;;;;2.57;1.97;;;25.70;95.80;;;;;;4422118;32;20525;-64
2021/08/06 10:51:46;;;;;;;4.10;2.37;;;25.20;96.30;;;;;;4423898;32;20152;-63
2021/08/06 10:54:37;;;;;;;3.60;2.12;;;25.60;96.70;;;;;;4422007;32;20170;-63
2021/08/06 10:57:37;;;;;;;5.72;2.40;;;26.00;96.40;;;;;;4423077;32;20152;-63
2021/08/06 11:00:07;;;;;;;3.05;2.28;;;26.00;96.10;;;;;;4422091;32;20151;-64
2021/08/06 11:02:52;;;;;;;3.97;2.28;;;25.40;95.90;;;;;;4421985;32;20147;-62
2021/08/06 11:05:41;;;;;;;4.20;2.17;;;25.10;97.50;;;;;;4421730;32;20167;-64
2021/08/06 11:08:58;;;;;;;6.75;2.50;;;25.30;97.30;;;;;;4421892;32;20203;-63
2021/08/06 11:11:44;;;;;;;6.10;2.70;;;25.30;96.50;;;;;;4421790;32;20143;-62
2021/08/06 11:14:11;;;;;;;3.65;2.17;;;25.50;96.20;;;;;;4421844;32;20217;-62
2021/08/06 11:17:01;;;;;;;3.58;1.73;;;25.70;96.30;;;;;;4423617;32;20147;-63
2021/08/06 11:19:29;;;;;;;1.77;1.67;;;25.70;95.30;;;;;;4421698;32;20155;-63
2021/08/06 11:21:56;;;;;;;3.37;1.35;;;25.20;95.30;;;;;;4421667;32;20182;-63
2021/08/06 11:24:23;;;;;;;3.55;1.52;;;24.50;96.30;;;;;;4421507;32;20179;-63
2021/08/06 11:26:51;;;;;;;3.17;1.62;;;23.70;97.10;;;;;;4317277;32;3347853;-62
2021/08/06 11:29:19;;;;;;;2.17;1.70;;;23.10;98.20;;;;;;4421423;32;20602;-63
2021/08/06 11:31:58;;;;;;;2.40;2.08;;;22.70;99.30;;;;;;4421318;32;20178;-62
2021/08/06 11:34:26;;;;;;;7.90;2.33;;;22.40;99.90;;;;;;4421302;32;20147;-63
2021/08/06 11:36:58;;;;;;;6.67;2.23;;;21.50;99.90;;;;;;4422397;32;20498;-64
2021/08/06 11:39:25;;;;;;;5.87;2.40;;;20.40;99.90;;;;;;4421463;32;20205;-62
2021/08/06 11:41:54;;;;;;;5.70;2.23;;;19.40;99.90;;;;;;4422076;32;20552;-62
2021/08/06 11:44:23;;;;;;;6.67;2.50;;;18.90;99.90;;;;;;4421321;32;20264;-63
2021/08/06 11:46:51;;;;;;;4.67;2.50;;;18.50;99.90;;;;;;4421520;32;20155;-60
2021/08/06 11:49:20;;;;;;;4.60;2.70;;;18.20;99.90;;;;;;4421288;32;20185;-61
2021/08/06 11:51:54;;;;;;;4.23;2.80;;;18.30;99.90;;;;;;4421802;32;20169;-63
2021/08/06 11:54:23;;;;;;;3.90;2.83;;;19.00;99.90;;;;;;4422882;32;20667;-61
2021/08/06 11:56:58;;;;;;;4.17;2.30;;;20.00;99.90;;;;;;4421075;32;20158;-62
2021/08/06 11:59:25;;;;;;;2.80;2.30;;;21.00;99.90;;;;;;4421033;32;20170;-62
2021/08/06 12:02:16;;;;;;;2.30;2.10;;;21.50;99.90;;;;;;4420919;32;20703;-62
2021/08/06 12:04:43;;;;;;;4.60;2.63;;;21.90;99.90;;;;;;4420963;32;20587;-61
2021/08/06 12:07:11;;;;;;;2.90;2.53;;;21.70;99.90;;;;;;4421040;32;20186;-62
2021/08/06 12:09:38;;;;;;;3.23;2.93;;;21.60;99.90;;;;;;4420982;32;20186;-61
2021/08/06 12:12:05;;;;;;;7.37;3.10;;;21.70;99.90;;;;;;4420658;32;20265;-62
2021/08/06 12:14:31;;;;;;;3.33;2.83;;;21.90;99.90;;;;;;4420819;32;20183;-62
2021/08/06 12:16:58;;;;;;;4.67;3.07;;;21.90;99.90;;;;;;4422601;32;20174;-61
2021/08/06 12:19:25;;;;;;;2.90;2.50;;;22.00;99.90;;;;;;4420803;32;20151;-61
2021/08/06 12:21:54;;;;;;;2.70;2.50;;;22.20;99.90;;;;;;4421641;32;20189;-61
2021/08/06 12:24:22;;;;;;;3.00;2.70;;;22.20;99.90;;;;;;4420563;32;20236;-62
2021/08/06 12:26:51;;;;;;;2.97;2.60;;;22.40;99.90;;;;;;4420643;32;20603;-62
2021/08/06 12:29:20;;;;;;;2.37;2.17;;;22.40;99.90;;;;;;4421493;32;20152;-61
2021/08/06 12:31:50;;;;;;;3.87;2.97;;;22.20;99.90;;;;;;4421961;32;20460;-62
2021/08/06 12:34:20;;;;;;;2.80;2.27;;;22.00;99.90;;;;;;4420717;32;20186;-62
2021/08/06 12:36:57;;;;;;;2.80;2.13;;;22.10;99.90;;;;;;4420749;32;20420;-61
2021/08/06 12:39:28;;;;;;;3.67;2.33;;;22.40;99.90;;;;;;4421462;32;20162;-62
2021/08/06 12:41:56;;;;;;;3.10;2.57;;;22.30;99.90;;;;;;4420734;32;20181;-61
2021/08/06 12:44:27;;;;;;;4.30;2.60;;;22.00;99.90;;;;;;4420293;32;20487;-61
2021/08/06 12:47:04;;;;;;;4.57;2.60;;;21.60;99.90;;;;;;4420456;32;20155;-63
2021/08/06 12:49:33;;;;;;;2.40;1.87;;;21.30;99.90;;;;;;4420878;32;20151;-62
2021/08/06 12:52:06;;;;;;;1.67;1.57;;;21.30;99.90;;;;;;4420534;32;20166;-61
2021/08/06 12:54:44;;;;;;;4.73;1.50;;;21.50;99.90;;;;;;4420619;32;20596;-62
2021/08/06 12:57:12;;;;;;;5.23;2.40;;;21.30;99.90;;;;;;4420571;32;20159;-62
2021/08/06 12:59:43;;;;;;;2.10;1.40;;;21.20;99.90;;;;;;4421011;32;20174;-61
2021/08/06 13:02:18;;;;;;;2.40;1.57;;;21.40;99.90;;;;;;4421479;32;20143;-61
2021/08/06 13:04:46;;;;;;;2.30;1.30;;;21.90;99.90;;;;;;4420163;32;20182;-63
2021/08/06 13:07:26;;;;;;;3.50;1.20;;;22.50;99.90;;;;;;4420555;32;20200;-63